Time;durP1;ratioP1;P1;durP2;ratioP2;P2;SDS_P1;SDS_P2;PMS_P1;PMS_P2;Temp;Humidity;BMP_temperature;BMP_pressure;BME280_temperature;BME280_humidity;BME280_pressure;Samples;Min_cycle;Max_cycle;Signal;HPM_P1;HPM_P2
2021/08/05 00:00:42;;;;;;;3.47;2.78;;;14.50;99.90;;;;;;5128074;27;20145;-65
2021/08/05 00:03:08;;;;;;;6.18;3.10;;;14.40;99.90;;;;;;5132322;27;20050;-66
2021/08/05 00:05:34;;;;;;;3.47;3.15;;;14.50;99.90;;;;;;5131635;27;20054;-65
2021/08/05 00:08:00;;;;;;;3.40;3.10;;;14.40;99.90;;;;;;5114577;27;20106;-65
2021/08/05 00:10:26;;;;;;;3.40;3.10;;;14.40;99.90;;;;;;5132419;27;20498;-66
2021/08/05 00:12:52;;;;;;;3.92;3.15;;;14.40;99.90;;;;;;5132629;27;20058;-66
2021/08/05 00:15:17;;;;;;;3.50;2.95;;;14.40;99.90;;;;;;5138900;27;20114;-65
2021/08/05 00:17:43;;;;;;;3.92;3.40;;;14.50;99.90;;;;;;5142838;27;20383;-65
2021/08/05 00:20:09;;;;;;;5.07;3.20;;;14.40;99.90;;;;;;5149062;27;20046;-65
2021/08/05 00:22:35;;;;;;;3.75;3.45;;;14.40;99.90;;;;;;5133336;27;20143;-65
2021/08/05 00:25:01;;;;;;;5.53;4.00;;;14.20;99.90;;;;;;5132433;27;20503;-65
2021/08/05 00:27:27;;;;;;;4.95;3.80;;;14.20;99.90;;;;;;5140898;27;20411;-65
2021/08/05 00:29:52;;;;;;;3.60;3.25;;;14.10;99.90;;;;;;5140762;27;20034;-65
2021/08/05 00:32:18;;;;;;;5.55;3.25;;;14.10;99.90;;;;;;5136702;27;20047;-65
2021/08/05 00:34:44;;;;;;;4.85;3.65;;;14.10;99.90;;;;;;5142072;27;20698;-65
2021/08/05 00:37:09;;;;;;;3.28;3.03;;;14.10;99.90;;;;;;5142424;27;20031;-65
2021/08/05 00:39:35;;;;;;;3.92;3.53;;;14.10;99.90;;;;;;5136172;27;20047;-65
2021/08/05 00:42:01;;;;;;;3.80;3.50;;;14.10;99.90;;;;;;5135066;27;20050;-65
2021/08/05 00:44:30;;;;;;;4.80;4.40;;;14.00;99.90;;;;;;5114061;27;20062;-65
2021/08/05 00:47:08;;;;;;;4.82;4.03;;;13.90;99.90;;;;;;5122355;27;20030;-65
2021/08/05 00:49:49;;;;;;;4.07;3.78;;;13.90;99.90;;;;;;5137721;27;20042;-65
2021/08/05 00:52:35;;;;;;;6.72;4.43;;;13.80;99.90;;;;;;5132920;27;20043;-65
2021/08/05 00:55:12;;;;;;;4.35;3.95;;;13.70;99.90;;;;;;5132282;27;20467;-65
2021/08/05 00:57:50;;;;;;;4.78;3.95;;;13.60;99.90;;;;;;5129124;27;20472;-65
2021/08/05 01:00:26;;;;;;;4.00;3.65;;;13.50;99.90;;;;;;5135594;27;20043;-65
2021/08/05 01:03:27;;;;;;;3.55;3.25;;;13.40;99.90;;;;;;5145844;27;20050;-65
2021/08/05 01:06:17;;;;;;;4.05;3.35;;;13.50;99.90;;;;;;5124266;27;20499;-66
2021/08/05 01:08:50;;;;;;;4.38;3.63;;;13.50;99.90;;;;;;5133603;27;20072;-65
2021/08/05 01:11:32;;;;;;;4.15;3.33;;;13.60;99.90;;;;;;5136920;27;20046;-65
2021/08/05 01:14:08;;;;;;;4.57;3.90;;;13.60;99.90;;;;;;5148808;27;20106;-65
2021/08/05 01:16:44;;;;;;;5.68;3.80;;;13.50;99.90;;;;;;5153334;27;20118;-65
2021/08/05 01:19:25;;;;;;;4.90;4.05;;;13.50;99.90;;;;;;5144540;27;20058;-65
2021/08/05 01:22:19;;;;;;;4.88;4.30;;;13.60;99.90;;;;;;5130537;27;20043;-65
2021/08/05 01:25:34;;;;;;;6.10;3.97;;;13.60;99.90;;;;;;5137933;27;20035;-65
2021/08/05 01:28:04;;;;;;;4.47;3.63;;;13.60;99.90;;;;;;5105355;27;20051;-65
2021/08/05 01:30:40;;;;;;;5.13;4.30;;;13.60;99.90;;;;;;5130807;27;20050;-65
2021/08/05 01:33:20;;;;;;;4.30;3.90;;;13.60;99.90;;;;;;5131429;27;20730;-65
2021/08/05 01:35:53;;;;;;;3.72;3.40;;;13.60;99.90;;;;;;5132326;27;20039;-65
2021/08/05 01:38:44;;;;;;;4.35;3.10;;;13.60;99.90;;;;;;5113579;27;20089;-65
2021/08/05 01:41:22;;;;;;;4.10;3.60;;;13.50;99.90;;;;;;5121793;28;20043;-65
2021/08/05 01:43:49;;;;;;;3.95;3.47;;;13.50;99.90;;;;;;5129736;27;20041;-65
2021/08/05 01:46:22;;;;;;;4.10;3.70;;;13.50;99.90;;;;;;5129769;27;20055;-65
2021/08/05 01:48:54;;;;;;;3.60;3.30;;;13.50;99.90;;;;;;5135781;27;20614;-65
2021/08/05 01:51:27;;;;;;;5.53;4.20;;;13.40;99.90;;;;;;5141913;27;20087;-65
2021/08/05 01:54:05;;;;;;;4.28;3.17;;;13.40;99.90;;;;;;5131836;27;20117;-65
2021/08/05 01:56:41;;;;;;;4.63;3.72;;;13.30;99.90;;;;;;5141109;27;20429;-65
2021/08/05 01:59:16;;;;;;;3.70;3.28;;;13.40;99.90;;;;;;5131437;27;20039;-65
2021/08/05 02:01:44;;;;;;;4.00;3.70;;;13.30;99.90;;;;;;5134903;27;20058;-65
2021/08/05 02:04:32;;;;;;;4.35;3.95;;;13.30;99.90;;;;;;5150560;27;20118;-65
2021/08/05 02:07:28;;;;;;;5.10;4.07;;;13.30;99.90;;;;;;5126835;27;20358;-65
2021/08/05 02:10:17;;;;;;;3.85;3.55;;;13.30;99.90;;;;;;5109932;27;20377;-65
2021/08/05 02:12:54;;;;;;;4.03;3.70;;;13.20;99.90;;;;;;5116853;27;20046;-65
2021/08/05 02:15:28;;;;;;;3.55;3.25;;;13.20;99.90;;;;;;5134550;27;20345;-65
2021/08/05 02:18:01;;;;;;;3.75;3.40;;;13.10;99.90;;;;;;5149309;27;20067;-65
2021/08/05 02:20:41;;;;;;;4.60;3.70;;;13.10;99.90;;;;;;5135792;27;20031;-65
2021/08/05 02:23:15;;;;;;;4.80;4.30;;;13.10;99.90;;;;;;5133339;27;20063;-65
2021/08/05 02:25:49;;;;;;;4.03;3.72;;;13.10;99.90;;;;;;5135232;27;20027;-65
2021/08/05 02:28:23;;;;;;;4.40;3.55;;;13.10;99.90;;;;;;5117335;27;20031;-65
2021/08/05 02:30:54;;;;;;;4.25;3.85;;;13.10;99.90;;;;;;5148142;27;20131;-65
2021/08/05 02:33:24;;;;;;;5.20;4.38;;;13.00;99.90;;;;;;5119002;27;20042;-65
2021/08/05 02:35:58;;;;;;;4.35;3.92;;;12.80;99.90;;;;;;5144499;27;20039;-65
2021/08/05 02:38:26;;;;;;;4.83;4.43;;;12.60;99.90;;;;;;5135268;27;20049;-65
2021/08/05 02:41:00;;;;;;;5.28;4.63;;;12.60;99.90;;;;;;5116886;27;20375;-65
2021/08/05 02:43:41;;;;;;;5.60;3.80;;;12.60;99.90;;;;;;5134475;27;20039;-65
2021/08/05 02:46:16;;;;;;;5.65;4.15;;;12.60;99.90;;;;;;5147751;27;20034;-65
2021/08/05 02:48:53;;;;;;;4.50;3.78;;;12.60;99.90;;;;;;5139149;27;20031;-65
2021/08/05 02:51:23;;;;;;;5.93;4.40;;;12.50;99.90;;;;;;5149896;27;20085;-65
2021/08/05 02:53:55;;;;;;;4.28;3.88;;;12.50;99.90;;;;;;5138998;27;20043;-65
2021/08/05 02:56:27;;;;;;;4.70;3.85;;;12.40;99.90;;;;;;5138790;27;20037;-65
2021/08/05 02:58:54;;;;;;;4.93;4.43;;;12.20;99.90;;;;;;5117276;27;20363;-65
2021/08/05 03:01:21;;;;;;;4.97;4.47;;;12.10;99.90;;;;;;5152929;27;20054;-65
2021/08/05 03:03:51;;;;;;;5.22;4.40;;;12.10;99.90;;;;;;5150473;27;20099;-65
2021/08/05 03:06:22;;;;;;;5.25;4.25;;;12.00;99.90;;;;;;5133914;27;20124;-65
2021/08/05 03:08:48;;;;;;;5.82;4.28;;;12.00;99.90;;;;;;5133966;27;20117;-65
2021/08/05 03:11:14;;;;;;;4.45;3.92;;;12.00;99.90;;;;;;5133685;27;20045;-65
2021/08/05 03:13:39;;;;;;;5.45;4.95;;;11.90;99.90;;;;;;5133152;27;20035;-65
2021/08/05 03:16:05;;;;;;;4.85;4.40;;;12.00;99.90;;;;;;5135259;27;20044;-65
2021/08/05 03:18:31;;;;;;;7.93;4.40;;;12.00;99.90;;;;;;5148109;27;20035;-65
2021/08/05 03:20:57;;;;;;;4.53;4.13;;;12.10;99.90;;;;;;5132512;27;20092;-65
2021/08/05 03:23:22;;;;;;;4.60;4.20;;;12.10;99.90;;;;;;5133957;27;20043;-65
2021/08/05 03:25:48;;;;;;;5.75;5.03;;;12.10;99.90;;;;;;5132797;27;20035;-64
2021/08/05 03:28:14;;;;;;;6.78;5.28;;;12.00;99.90;;;;;;5134000;27;20066;-64
2021/08/05 03:30:39;;;;;;;5.72;5.22;;;12.00;99.90;;;;;;5132749;27;20672;-64
2021/08/05 03:33:05;;;;;;;5.35;4.88;;;12.00;99.90;;;;;;5136039;27;20072;-64
2021/08/05 03:35:31;;;;;;;6.50;5.50;;;12.00;99.90;;;;;;5137951;27;20039;-64
2021/08/05 03:37:56;;;;;;;6.80;6.05;;;12.10;99.90;;;;;;5134422;27;20042;-64
2021/08/05 03:40:22;;;;;;;6.05;5.45;;;12.10;99.90;;;;;;5133262;27;20031;-64
2021/08/05 03:42:47;;;;;;;5.68;5.15;;;12.00;99.90;;;;;;5135119;27;20043;-64
2021/08/05 03:45:13;;;;;;;6.95;6.20;;;12.00;99.90;;;;;;5153053;27;20051;-64
2021/08/05 03:47:39;;;;;;;9.45;7.45;;;12.10;99.90;;;;;;5136638;27;20134;-64
2021/08/05 03:50:05;;;;;;;10.52;7.30;;;12.20;99.90;;;;;;5144938;27;20039;-64
2021/08/05 03:52:33;;;;;;;7.78;6.97;;;12.20;99.90;;;;;;5143739;27;20038;-64
2021/08/05 03:54:58;;;;;;;8.30;7.30;;;12.20;99.90;;;;;;5135934;27;20500;-64
2021/08/05 03:57:24;;;;;;;10.05;8.63;;;12.30;99.90;;;;;;5136797;27;20105;-64
2021/08/05 03:59:50;;;;;;;12.45;11.15;;;12.30;99.90;;;;;;5154657;27;20035;-64
2021/08/05 04:02:16;;;;;;;12.13;10.35;;;12.40;99.90;;;;;;5132866;27;20051;-64
2021/08/05 04:04:42;;;;;;;13.35;12.05;;;12.40;99.90;;;;;;5132529;27;20035;-64
2021/08/05 04:07:08;;;;;;;13.95;12.45;;;12.40;99.90;;;;;;5132773;27;20452;-64
2021/08/05 04:09:34;;;;;;;13.50;12.10;;;12.50;99.90;;;;;;5131578;27;20361;-64
2021/08/05 04:12:00;;;;;;;14.65;13.25;;;12.60;99.90;;;;;;5132418;27;20035;-64
2021/08/05 04:14:25;;;;;;;15.15;13.55;;;12.60;99.90;;;;;;5140094;27;20030;-64
2021/08/05 04:16:52;;;;;;;14.02;12.63;;;12.60;99.90;;;;;;5136044;27;20043;-64
2021/08/05 04:19:17;;;;;;;14.07;12.75;;;12.70;99.90;;;;;;5110013;28;20032;-64
2021/08/05 04:21:43;;;;;;;14.82;13.32;;;12.80;99.90;;;;;;5127766;27;20066;-64
2021/08/05 04:24:08;;;;;;;15.68;13.93;;;12.80;99.90;;;;;;5131580;27;20088;-64
2021/08/05 04:26:35;;;;;;;17.27;15.23;;;12.90;99.90;;;;;;5132576;27;20460;-65
2021/08/05 04:29:01;;;;;;;15.98;14.27;;;13.00;99.90;;;;;;5140666;27;20037;-64
2021/08/05 04:31:27;;;;;;;17.98;14.70;;;13.00;99.90;;;;;;5141691;27;20432;-64
2021/08/05 04:33:52;;;;;;;17.00;14.38;;;13.10;99.90;;;;;;5131459;27;20041;-64
2021/08/05 04:36:18;;;;;;;16.55;13.98;;;13.10;99.90;;;;;;5125522;27;20463;-64
2021/08/05 04:38:43;;;;;;;16.52;14.88;;;13.20;99.90;;;;;;5132163;27;20539;-64
2021/08/05 04:41:09;;;;;;;16.13;14.10;;;13.30;99.90;;;;;;5133165;27;20062;-64
2021/08/05 04:43:35;;;;;;;15.70;14.15;;;13.30;99.90;;;;;;5151627;27;20372;-64
2021/08/05 04:46:00;;;;;;;16.33;14.48;;;13.40;99.90;;;;;;5131602;27;20104;-64
2021/08/05 04:48:27;;;;;;;15.73;14.13;;;13.50;99.90;;;;;;5132766;27;20047;-64
2021/08/05 04:50:54;;;;;;;16.02;14.38;;;13.50;99.90;;;;;;5138522;27;20408;-64
2021/08/05 04:53:19;;;;;;;16.05;14.35;;;13.60;99.90;;;;;;5135407;27;20035;-64
2021/08/05 04:55:45;;;;;;;16.85;15.13;;;13.80;99.90;;;;;;5131107;27;20414;-64
2021/08/05 04:58:11;;;;;;;17.80;16.08;;;13.90;99.90;;;;;;5120335;27;20039;-64
2021/08/05 05:00:40;;;;;;;16.08;14.38;;;14.00;99.90;;;;;;5133138;27;20043;-64
2021/08/05 05:03:07;;;;;;;16.20;14.60;;;14.20;99.90;;;;;;5134309;27;20448;-63
2021/08/05 05:05:33;;;;;;;16.30;14.90;;;14.30;99.90;;;;;;5132765;27;20387;-63
2021/08/05 05:08:19;;;;;;;16.70;15.07;;;14.50;99.90;;;;;;5129808;27;20043;-63
2021/08/05 05:10:47;;;;;;;15.95;14.35;;;14.60;99.90;;;;;;5129553;27;20475;-63
2021/08/05 05:13:13;;;;;;;16.92;15.23;;;14.70;99.90;;;;;;5132153;27;20038;-63
2021/08/05 05:15:40;;;;;;;16.15;14.65;;;14.90;99.90;;;;;;5132566;27;20079;-63
2021/08/05 05:18:07;;;;;;;15.05;13.63;;;15.10;99.90;;;;;;5132383;27;20345;-63
2021/08/05 05:20:33;;;;;;;14.85;13.45;;;15.30;99.90;;;;;;5132592;27;20039;-63
2021/08/05 05:23:00;;;;;;;15.25;13.85;;;15.50;99.90;;;;;;5130918;27;20639;-63
2021/08/05 05:25:26;;;;;;;15.27;13.98;;;15.60;99.90;;;;;;5132212;27;20548;-64
2021/08/05 05:27:52;;;;;;;15.20;13.80;;;15.80;99.90;;;;;;5131681;27;20043;-64
2021/08/05 05:30:19;;;;;;;15.13;13.70;;;15.90;99.90;;;;;;5131596;27;20043;-64
2021/08/05 05:32:46;;;;;;;16.13;14.65;;;16.00;99.90;;;;;;5131567;27;20053;-64
2021/08/05 05:35:14;;;;;;;16.33;14.73;;;16.10;99.90;;;;;;5131495;27;20035;-64
2021/08/05 05:37:39;;;;;;;15.98;14.57;;;16.30;99.90;;;;;;5131677;27;20038;-64
2021/08/05 05:40:08;;;;;;;14.00;12.70;;;16.40;99.90;;;;;;5130110;27;20397;-64
2021/08/05 05:42:34;;;;;;;14.35;13.15;;;16.70;99.90;;;;;;5131783;28;20043;-64
2021/08/05 05:44:59;;;;;;;14.30;13.00;;;16.90;99.90;;;;;;5130894;28;20497;-64
2021/08/05 05:47:25;;;;;;;13.27;12.18;;;17.10;99.90;;;;;;5130765;28;20476;-64
2021/08/05 05:49:53;;;;;;;12.07;11.05;;;17.10;99.90;;;;;;5131788;28;20125;-64
2021/08/05 05:52:19;;;;;;;12.25;11.10;;;17.10;99.90;;;;;;5131653;28;20043;-63
2021/08/05 05:54:45;;;;;;;12.93;11.73;;;17.10;99.90;;;;;;5131506;28;20035;-63
2021/08/05 05:57:10;;;;;;;12.00;10.90;;;17.10;99.90;;;;;;5130226;27;20793;-63
2021/08/05 05:59:36;;;;;;;11.70;10.57;;;17.20;99.90;;;;;;5130156;27;20050;-64
2021/08/05 06:02:02;;;;;;;11.88;10.77;;;17.30;99.90;;;;;;5126831;28;20048;-63
2021/08/05 06:04:28;;;;;;;12.05;10.95;;;17.40;99.90;;;;;;5129716;28;20435;-63
2021/08/05 06:06:55;;;;;;;10.52;9.52;;;17.40;99.90;;;;;;5123376;28;20035;-63
2021/08/05 06:09:21;;;;;;;11.75;10.65;;;17.50;99.90;;;;;;5113940;28;20353;-64
2021/08/05 06:11:46;;;;;;;11.18;10.20;;;17.60;99.90;;;;;;5129863;27;20092;-64
2021/08/05 06:14:12;;;;;;;10.52;9.45;;;17.70;99.90;;;;;;5150370;27;20437;-63
2021/08/05 06:16:37;;;;;;;10.50;9.60;;;17.90;99.90;;;;;;5130032;27;20035;-63
2021/08/05 06:19:03;;;;;;;10.43;9.55;;;18.10;99.90;;;;;;5112269;28;20061;-63
2021/08/05 06:21:29;;;;;;;10.35;9.50;;;18.20;99.90;;;;;;5129833;28;20035;-63
2021/08/05 06:23:55;;;;;;;10.65;9.65;;;18.50;99.90;;;;;;5129717;28;20092;-63
2021/08/05 06:26:23;;;;;;;10.30;9.30;;;18.60;99.90;;;;;;5130590;28;20035;-63
2021/08/05 06:28:49;;;;;;;9.65;8.77;;;18.90;99.90;;;;;;5105481;28;20080;-63
2021/08/05 06:31:16;;;;;;;9.70;8.68;;;19.10;99.90;;;;;;5108491;28;20038;-63
2021/08/05 06:33:41;;;;;;;8.23;7.43;;;19.30;99.90;;;;;;5107750;28;20045;-64
2021/08/05 06:36:07;;;;;;;9.55;8.65;;;19.60;99.90;;;;;;5120675;28;20403;-63
2021/08/05 06:38:33;;;;;;;8.52;7.72;;;20.00;99.90;;;;;;5129993;27;20039;-64
2021/08/05 06:40:58;;;;;;;8.35;7.53;;;20.40;99.90;;;;;;5128950;28;20043;-64
2021/08/05 06:43:24;;;;;;;8.35;7.55;;;20.60;99.90;;;;;;5111950;27;20725;-64
2021/08/05 06:45:50;;;;;;;7.90;6.90;;;20.70;99.90;;;;;;5130904;28;20035;-64
2021/08/05 06:48:15;;;;;;;7.35;6.75;;;21.10;99.90;;;;;;5131171;28;20035;-64
2021/08/05 06:50:41;;;;;;;6.60;6.10;;;22.00;99.90;;;;;;5134004;27;20083;-64
2021/08/05 06:53:07;;;;;;;7.07;6.57;;;23.10;99.90;;;;;;5135552;27;20068;-64
2021/08/05 06:55:32;;;;;;;6.22;5.72;;;24.10;99.90;;;;;;5131734;27;20069;-64
2021/08/05 06:57:58;;;;;;;5.93;5.43;;;25.20;95.90;;;;;;5122949;27;20054;-64
2021/08/05 07:00:24;;;;;;;6.45;5.95;;;25.40;94.00;;;;;;5150668;27;20524;-64
2021/08/05 07:02:49;;;;;;;6.68;6.07;;;25.50;95.40;;;;;;5149300;27;20054;-64
2021/08/05 07:05:16;;;;;;;5.35;4.93;;;26.40;94.90;;;;;;5128570;27;20095;-64
2021/08/05 07:07:42;;;;;;;5.93;5.43;;;27.00;94.30;;;;;;5128407;27;20127;-64
2021/08/05 07:10:08;;;;;;;5.20;4.80;;;27.20;90.50;;;;;;5130784;27;20646;-64
2021/08/05 07:12:34;;;;;;;6.13;5.60;;;27.30;90.90;;;;;;5131748;27;20050;-64
2021/08/05 07:14:59;;;;;;;6.32;5.07;;;27.50;91.20;;;;;;5133653;27;20035;-64
2021/08/05 07:17:26;;;;;;;5.32;4.85;;;28.30;90.70;;;;;;5108344;22;20139;-66
2021/08/05 07:19:51;;;;;;;4.70;4.30;;;28.20;86.70;;;;;;5083655;28;20106;-66
2021/08/05 07:22:18;;;;;;;3.80;3.50;;;28.60;88.80;;;;;;5092382;28;20032;-66
2021/08/05 07:24:43;;;;;;;3.50;3.30;;;29.30;87.50;;;;;;5092327;28;20042;-66
2021/08/05 07:27:10;;;;;;;4.07;3.78;;;28.80;83.50;;;;;;5092727;28;20049;-66
2021/08/05 07:29:36;;;;;;;4.85;4.20;;;28.10;76.70;;;;;;5075489;28;20048;-66
2021/08/05 07:32:06;;;;;;;3.45;3.25;;;28.20;81.90;;;;;;5093181;28;20388;-66
2021/08/05 07:34:33;;;;;;;3.88;3.53;;;28.10;82.10;;;;;;5091294;28;20108;-66
2021/08/05 07:37:00;;;;;;;4.07;3.45;;;28.90;82.80;;;;;;5073061;28;20041;-66
2021/08/05 07:39:26;;;;;;;3.42;3.13;;;28.90;78.70;;;;;;5086278;28;20032;-66
2021/08/05 07:41:52;;;;;;;3.60;3.30;;;29.60;77.60;;;;;;5092817;28;20048;-66
2021/08/05 07:44:18;;;;;;;3.97;2.95;;;30.10;75.50;;;;;;5093071;28;20086;-66
2021/08/05 07:46:44;;;;;;;3.05;2.67;;;30.70;74.50;;;;;;5092920;28;20106;-66
2021/08/05 07:49:11;;;;;;;3.50;3.20;;;30.40;72.10;;;;;;5092715;28;20119;-66
2021/08/05 07:51:37;;;;;;;3.10;2.80;;;30.30;70.20;;;;;;5102562;28;20044;-66
2021/08/05 07:54:03;;;;;;;2.53;2.33;;;30.60;71.60;;;;;;5074993;28;20039;-66
2021/08/05 07:56:29;;;;;;;4.07;3.40;;;30.90;70.90;;;;;;5099318;28;20070;-66
2021/08/05 07:58:55;;;;;;;3.70;3.40;;;30.10;68.00;;;;;;5072039;28;20059;-66
2021/08/05 08:01:21;;;;;;;3.50;3.30;;;29.80;69.30;;;;;;5092161;28;20039;-66
2021/08/05 08:03:46;;;;;;;2.72;2.53;;;29.70;69.40;;;;;;5072835;28;20041;-66
2021/08/05 08:06:12;;;;;;;3.80;3.50;;;29.20;70.20;;;;;;5072049;28;20078;-66
2021/08/05 08:08:38;;;;;;;3.08;2.78;;;28.50;72.20;;;;;;5089289;28;20063;-67
2021/08/05 08:11:04;;;;;;;3.08;2.88;;;27.50;73.30;;;;;;5092585;28;20044;-66
2021/08/05 08:13:31;;;;;;;3.30;2.70;;;26.50;74.90;;;;;;5070208;28;20404;-67
2021/08/05 08:15:57;;;;;;;3.17;2.20;;;25.60;79.30;;;;;;5088856;28;20110;-68
2021/08/05 08:18:23;;;;;;;3.05;2.83;;;25.30;83.30;;;;;;5088265;28;20485;-68
2021/08/05 08:20:51;;;;;;;2.83;2.63;;;24.60;89.20;;;;;;5081096;28;20519;-68
2021/08/05 08:23:16;;;;;;;3.97;3.20;;;24.30;90.00;;;;;;5092320;28;20440;-68
2021/08/05 08:25:42;;;;;;;3.55;2.63;;;24.00;91.20;;;;;;5093503;28;20036;-67
2021/08/05 08:28:08;;;;;;;2.60;2.17;;;24.00;91.70;;;;;;5073631;28;20111;-67
2021/08/05 08:30:35;;;;;;;2.50;2.30;;;24.00;92.50;;;;;;5073489;28;20477;-67
2021/08/05 08:33:01;;;;;;;3.67;3.38;;;24.00;92.60;;;;;;5082466;28;20044;-67
2021/08/05 08:35:27;;;;;;;3.40;3.10;;;24.00;92.20;;;;;;5069900;28;20032;-67
2021/08/05 08:37:52;;;;;;;3.45;3.15;;;23.70;92.60;;;;;;5090163;28;20039;-67
2021/08/05 08:40:18;;;;;;;3.67;3.17;;;23.50;93.50;;;;;;5091380;28;20040;-67
2021/08/05 08:42:45;;;;;;;3.45;3.20;;;23.30;94.50;;;;;;5091411;28;20063;-67
2021/08/05 08:45:12;;;;;;;2.97;2.78;;;23.30;94.50;;;;;;5091853;28;20036;-67
2021/08/05 08:47:40;;;;;;;3.03;2.83;;;23.40;94.80;;;;;;5091565;28;20044;-67
2021/08/05 08:50:21;;;;;;;2.92;2.72;;;23.50;94.50;;;;;;5079633;28;20045;-66
2021/08/05 08:52:48;;;;;;;2.75;2.55;;;23.50;94.70;;;;;;5077064;28;20043;-65
2021/08/05 08:55:14;;;;;;;3.38;2.60;;;23.40;94.80;;;;;;5089049;28;20044;-65
2021/08/05 08:57:40;;;;;;;3.25;2.38;;;23.00;95.40;;;;;;5053673;28;20036;-65
2021/08/05 09:00:07;;;;;;;2.67;2.47;;;23.10;95.00;;;;;;5078560;28;20051;-65
2021/08/05 09:02:34;;;;;;;2.80;2.60;;;22.90;95.70;;;;;;5091469;28;20043;-65
2021/08/05 09:05:03;;;;;;;2.70;2.50;;;22.90;96.00;;;;;;5091732;28;20040;-65
2021/08/05 09:07:29;;;;;;;3.78;2.13;;;23.00;95.90;;;;;;5090107;28;20044;-65
2021/08/05 09:09:55;;;;;;;3.22;2.33;;;23.10;96.00;;;;;;5086405;28;20040;-65
2021/08/05 09:12:21;;;;;;;2.58;2.38;;;23.20;94.90;;;;;;5074093;28;20081;-65
2021/08/05 09:14:52;;;;;;;2.30;2.15;;;23.00;95.20;;;;;;5084822;28;20343;-67
2021/08/05 09:17:28;;;;;;;;;;;23.00;95.70;;;;;;5087622;28;20040;-65
2021/08/05 09:19:57;;;;;;;2.53;2.20;;;22.90;95.60;;;;;;5072623;28;19931;-65
2021/08/05 09:22:33;;;;;;;2.63;1.77;;;22.90;94.80;;;;;;5091445;28;20113;-65
2021/08/05 09:25:19;;;;;;;1.98;1.85;;;22.80;95.40;;;;;;5091482;28;20040;-66
2021/08/05 09:27:47;;;;;;;2.67;2.47;;;22.90;95.30;;;;;;5078701;28;20040;-66
2021/08/05 09:30:31;;;;;;;2.50;2.20;;;22.90;95.10;;;;;;5077618;28;20132;-66
2021/08/05 09:33:04;;;;;;;2.17;2.00;;;23.00;95.70;;;;;;5091328;28;20129;-66
2021/08/05 09:35:30;;;;;;;1.98;1.77;;;23.00;95.60;;;;;;5091529;28;20036;-66
2021/08/05 09:38:14;;;;;;;2.40;2.17;;;22.90;95.80;;;;;;5089874;28;20047;-66
2021/08/05 09:40:40;;;;;;;2.65;2.42;;;23.10;95.60;;;;;;5091321;28;20114;-66
2021/08/05 09:43:06;;;;;;;2.40;2.20;;;23.10;94.90;;;;;;5091240;28;20124;-66
2021/08/05 09:45:35;;;;;;;2.40;2.20;;;23.00;94.60;;;;;;5072703;28;20123;-66
2021/08/05 09:48:02;;;;;;;2.50;2.00;;;23.00;94.00;;;;;;5070923;28;20041;-66
2021/08/05 09:50:27;;;;;;;2.25;2.00;;;23.20;95.30;;;;;;5074197;28;20378;-66
2021/08/05 09:53:10;;;;;;;2.88;2.58;;;23.20;94.80;;;;;;5089987;28;20194;-66
2021/08/05 09:55:36;;;;;;;3.03;2.70;;;23.30;95.20;;;;;;5071523;28;20059;-66
2021/08/05 09:58:03;;;;;;;2.88;2.20;;;23.50;94.90;;;;;;5090817;28;20032;-66
2021/08/05 10:00:44;;;;;;;2.75;2.55;;;23.60;94.60;;;;;;5079932;28;20442;-66
2021/08/05 10:03:10;;;;;;;3.08;2.60;;;23.60;94.40;;;;;;5091059;28;20064;-66
2021/08/05 10:05:37;;;;;;;2.60;2.40;;;23.50;94.40;;;;;;5091170;28;20469;-66
2021/08/05 10:08:03;;;;;;;2.28;2.10;;;23.50;94.60;;;;;;5090653;28;20113;-66
2021/08/05 10:10:49;;;;;;;2.47;2.15;;;23.50;94.50;;;;;;5072735;28;20046;-66
2021/08/05 10:13:27;;;;;;;3.42;2.50;;;23.40;94.80;;;;;;5054320;28;20037;-67
2021/08/05 10:15:52;;;;;;;2.40;2.20;;;23.40;94.10;;;;;;5082294;28;20024;-66
2021/08/05 10:18:18;;;;;;;2.97;2.60;;;23.50;94.30;;;;;;5082067;28;20053;-66
2021/08/05 10:20:44;;;;;;;2.40;2.13;;;23.40;94.50;;;;;;5070035;28;20049;-66
2021/08/05 10:23:11;;;;;;;2.65;2.45;;;23.40;93.50;;;;;;5070197;28;20035;-66
2021/08/05 10:25:37;;;;;;;2.20;2.10;;;23.20;95.10;;;;;;5078379;28;20093;-67
2021/08/05 10:28:03;;;;;;;2.92;2.58;;;23.40;94.90;;;;;;5090019;28;20040;-66
2021/08/05 10:30:30;;;;;;;2.63;2.42;;;23.50;95.00;;;;;;5092541;28;20035;-66
2021/08/05 10:32:56;;;;;;;2.80;2.50;;;23.50;94.40;;;;;;5094584;28;20082;-66
2021/08/05 10:35:23;;;;;;;2.72;2.53;;;23.60;95.00;;;;;;5084491;28;20466;-67
2021/08/05 10:37:49;;;;;;;2.95;2.67;;;23.60;95.10;;;;;;5056247;28;20046;-66
2021/08/05 10:40:15;;;;;;;3.40;3.10;;;23.80;94.90;;;;;;5074235;28;20063;-66
2021/08/05 10:42:42;;;;;;;3.25;2.83;;;23.60;93.80;;;;;;5074262;28;20040;-66
2021/08/05 10:45:09;;;;;;;3.53;3.22;;;23.80;94.70;;;;;;5074301;28;20375;-66
2021/08/05 10:47:37;;;;;;;3.47;2.67;;;23.90;92.80;;;;;;5074245;28;20739;-66
2021/08/05 10:50:08;;;;;;;3.70;3.10;;;23.90;94.00;;;;;;5075702;28;20047;-66
2021/08/05 10:52:36;;;;;;;3.75;2.88;;;24.10;93.80;;;;;;5093336;28;20107;-66
2021/08/05 10:55:26;;;;;;;3.17;2.88;;;24.40;94.00;;;;;;5094394;28;20040;-66
2021/08/05 10:58:21;;;;;;;3.30;2.60;;;24.50;93.90;;;;;;5094196;28;20096;-66
2021/08/05 11:00:49;;;;;;;2.70;2.50;;;24.40;91.40;;;;;;5094123;28;20117;-66
2021/08/05 11:03:38;;;;;;;2.70;2.50;;;24.50;92.30;;;;;;5093920;28;20040;-66
2021/08/05 11:06:25;;;;;;;2.47;2.28;;;24.10;91.70;;;;;;5088188;28;20519;-66
2021/08/05 11:08:54;;;;;;;3.00;2.80;;;24.10;92.20;;;;;;5073950;28;20048;-67
2021/08/05 11:11:20;;;;;;;2.83;2.63;;;24.10;92.90;;;;;;5073370;28;20045;-67
2021/08/05 11:14:06;;;;;;;3.08;2.80;;;24.30;93.20;;;;;;5073694;28;20048;-67
2021/08/05 11:16:50;;;;;;;3.47;2.40;;;24.50;92.70;;;;;;5050548;28;20546;-67
2021/08/05 11:19:27;;;;;;;3.30;3.05;;;24.70;91.50;;;;;;5093833;28;20393;-66
2021/08/05 11:21:54;;;;;;;2.45;2.25;;;24.80;91.60;;;;;;5092532;28;20113;-66
2021/08/05 11:24:58;;;;;;;1.63;1.52;;;25.00;91.80;;;;;;5093741;28;20135;-66
2021/08/05 11:27:24;;;;;;;2.05;1.77;;;25.30;90.50;;;;;;5057480;28;20067;-65
2021/08/05 11:29:51;;;;;;;2.08;1.60;;;25.20;87.80;;;;;;5073122;28;20036;-66
2021/08/05 11:32:25;;;;;;;2.47;2.28;;;25.30;89.30;;;;;;5073319;28;20040;-67
2021/08/05 11:34:57;;;;;;;2.22;2.13;;;25.50;89.70;;;;;;5073197;28;20120;-67
2021/08/05 11:37:26;;;;;;;1.80;1.70;;;25.40;84.50;;;;;;5072853;28;20321;-67
2021/08/05 11:39:57;;;;;;;3.08;2.03;;;25.20;84.20;;;;;;5072987;28;20697;-67
2021/08/05 11:42:23;;;;;;;2.53;2.25;;;25.10;86.60;;;;;;5072909;28;20126;-67
2021/08/05 11:44:56;;;;;;;3.30;2.60;;;24.90;87.50;;;;;;5072964;28;20424;-67
2021/08/05 11:47:34;;;;;;;2.25;2.10;;;24.90;86.80;;;;;;5073227;28;20041;-67
2021/08/05 11:50:03;;;;;;;3.00;2.80;;;24.90;90.20;;;;;;5072809;28;20037;-66
2021/08/05 11:52:29;;;;;;;2.83;2.63;;;25.00;87.80;;;;;;5084497;28;20032;-67
2021/08/05 11:55:15;;;;;;;3.20;2.80;;;25.20;89.30;;;;;;5093024;28;20487;-66
2021/08/05 11:57:58;;;;;;;4.15;2.30;;;25.40;86.60;;;;;;5072869;28;20040;-66
2021/08/05 12:00:28;;;;;;;2.13;1.90;;;25.50;90.10;;;;;;5075220;28;20474;-66
2021/08/05 12:03:01;;;;;;;2.53;2.33;;;25.60;88.40;;;;;;5072824;28;20130;-66
2021/08/05 12:05:39;;;;;;;2.95;1.98;;;25.60;86.90;;;;;;5072677;28;20048;-66
2021/08/05 12:08:05;;;;;;;2.30;2.10;;;25.80;89.30;;;;;;5072809;28;20064;-65
2021/08/05 12:10:32;;;;;;;2.65;2.25;;;25.80;84.90;;;;;;5073448;28;20048;-66
2021/08/05 12:13:04;;;;;;;2.72;2.10;;;25.80;87.00;;;;;;5091510;28;20426;-67
2021/08/05 12:15:35;;;;;;;2.50;2.25;;;25.60;84.90;;;;;;5089393;28;20540;-65
2021/08/05 12:18:35;;;;;;;2.25;2.05;;;25.60;81.90;;;;;;5090353;28;20109;-66
2021/08/05 12:21:03;;;;;;;2.38;2.17;;;25.20;85.80;;;;;;5088557;28;20059;-66
2021/08/05 12:23:40;;;;;;;1.77;1.67;;;25.20;88.30;;;;;;5092737;28;20039;-68
2021/08/05 12:26:13;;;;;;;1.77;1.67;;;25.30;86.60;;;;;;5074032;28;20107;-65
2021/08/05 12:28:42;;;;;;;1.73;1.63;;;25.50;83.20;;;;;;5088464;28;20412;-65
2021/08/05 12:31:10;;;;;;;2.75;1.73;;;25.40;80.80;;;;;;5092206;28;20044;-66
2021/08/05 12:33:41;;;;;;;2.00;1.70;;;25.40;82.80;;;;;;5089831;28;20055;-66
2021/08/05 12:36:13;;;;;;;1.92;1.63;;;25.40;81.80;;;;;;5071926;28;20458;-66
2021/08/05 12:38:49;;;;;;;2.03;1.92;;;25.60;80.50;;;;;;5072076;28;20063;-65
2021/08/05 12:41:25;;;;;;;1.90;1.70;;;25.70;79.10;;;;;;5071985;28;20178;-70
2021/08/05 12:43:57;;;;;;;2.05;1.90;;;25.70;83.10;;;;;;5071672;28;20040;-66
2021/08/05 12:46:24;;;;;;;1.85;1.70;;;25.80;82.60;;;;;;5071754;28;20095;-66
2021/08/05 12:48:52;;;;;;;1.42;1.33;;;26.00;84.30;;;;;;5072153;28;20041;-66
2021/08/05 12:51:20;;;;;;;2.67;1.88;;;26.20;82.00;;;;;;5062271;28;20040;-66
2021/08/05 12:53:46;;;;;;;2.63;2.20;;;26.30;80.60;;;;;;5091929;28;20036;-66
2021/08/05 12:56:12;;;;;;;2.95;2.10;;;26.20;80.40;;;;;;5087259;28;20086;-66